Time;durP1;ratioP1;P1;durP2;ratioP2;P2;SDS_P1;SDS_P2;PMS_P1;PMS_P2;Temp;Humidity;BMP_temperature;BMP_pressure;BME280_temperature;BME280_humidity;BME280_pressure;Samples;Min_cycle;Max_cycle;Signal;HPM_P1;HPM_P2
2022/03/08 00:01:58;;;;;;;17.83;10.93;;;;;;;1.33;86.21;94630.78;5097778;28;20220;-81
2022/03/08 00:04:24;;;;;;;23.23;12.70;;;;;;;1.19;86.62;94599.53;5092903;28;20174;-80
2022/03/08 00:06:49;;;;;;;25.87;13.73;;;;;;;1.13;86.44;94580.22;5093302;28;20169;-81
2022/03/08 00:09:15;;;;;;;23.83;13.13;;;;;;;1.13;86.40;94583.63;5093029;28;20645;-81
2022/03/08 00:11:40;;;;;;;22.57;12.30;;;;;;;1.10;86.58;94565.81;5093297;28;20205;-81
2022/03/08 00:14:06;;;;;;;23.60;13.30;;;;;;;1.48;86.42;94630.97;5093342;28;20162;-81
2022/03/08 00:16:31;;;;;;;29.33;14.33;;;;;;;1.51;86.69;94628.88;5092730;28;20142;-81
2022/03/08 00:18:57;;;;;;;23.83;14.60;;;;;;;1.28;85.81;94586.41;5092680;28;20162;-81
2022/03/08 00:21:22;;;;;;;27.40;13.90;;;;;;;1.22;85.14;94575.84;5092604;28;20181;-80
2022/03/08 00:23:47;;;;;;;25.00;13.00;;;;;;;1.55;85.36;94637.16;5102350;28;20218;-81
2022/03/08 00:26:13;;;;;;;25.53;13.60;;;;;;;1.55;85.76;94631.16;5103267;28;20172;-81
2022/03/08 00:28:39;;;;;;;26.67;14.40;;;;;;;1.22;85.69;94583.63;5103161;28;20200;-81
2022/03/08 00:31:05;;;;;;;22.37;12.40;;;;;;;1.61;85.57;94639.09;5101772;28;20166;-80
2022/03/08 00:33:30;;;;;;;21.83;12.67;;;;;;;1.63;85.96;94628.56;5104811;28;20173;-80
2022/03/08 00:35:56;;;;;;;25.10;12.83;;;;;;;1.56;85.06;94614.63;5103392;28;20176;-80
2022/03/08 00:38:21;;;;;;;21.40;11.77;;;;;;;1.38;85.00;94579.28;5108290;28;20169;-80
2022/03/08 00:40:47;;;;;;;20.13;11.30;;;;;;;1.54;84.46;94614.78;5110524;28;20221;-80
2022/03/08 00:43:13;;;;;;;26.70;13.40;;;;;;;1.38;85.38;94591.44;5113166;28;20220;-81
2022/03/08 00:45:38;;;;;;;21.33;11.30;;;;;;;1.27;85.69;94594.34;5112600;28;20184;-81
2022/03/08 00:48:05;;;;;;;23.10;11.27;;;;;;;1.24;84.89;94581.69;5112800;28;20720;-81
2022/03/08 00:50:31;;;;;;;17.80;9.80;;;;;;;1.51;85.27;94621.09;5112823;28;20153;-80
2022/03/08 00:52:58;;;;;;;20.53;11.47;;;;;;;1.56;85.22;94622.41;5097641;28;20188;-81
2022/03/08 00:55:26;;;;;;;20.60;11.17;;;;;;;1.63;85.06;94621.59;5104738;28;20218;-81
2022/03/08 00:57:52;;;;;;;18.37;11.17;;;;;;;1.67;85.13;94614.28;5100599;28;20650;-80
2022/03/08 01:00:22;;;;;;;19.33;11.57;;;;;;;1.73;84.79;94621.44;5099176;28;20198;-81
2022/03/08 01:02:47;;;;;;;21.40;11.67;;;;;;;1.55;84.65;94576.69;5092097;28;20202;-80
2022/03/08 01:05:13;;;;;;;19.37;10.87;;;;;;;1.62;84.20;94590.63;5092951;28;20613;-81
2022/03/08 01:07:40;;;;;;;24.83;13.50;;;;;;;1.68;83.83;94598.56;5105297;28;20200;-81
2022/03/08 01:10:08;;;;;;;24.07;12.03;;;;;;;1.64;83.74;94588.69;5103456;28;20192;-81
2022/03/08 01:12:34;;;;;;;22.77;11.73;;;;;;;1.65;83.58;94588.50;5100353;28;20176;-81
2022/03/08 01:15:01;;;;;;;23.37;12.43;;;;;;;1.71;83.88;94600.84;5094789;28;20177;-82
2022/03/08 01:17:27;;;;;;;26.13;13.57;;;;;;;1.52;83.66;94578.63;5090699;28;20227;-80
2022/03/08 01:19:53;;;;;;;20.80;10.93;;;;;;;1.44;83.42;94555.31;5092166;28;20615;-81
2022/03/08 01:22:18;;;;;;;22.00;11.00;;;;;;;1.84;82.90;94606.31;5090667;28;20176;-81
2022/03/08 01:24:44;;;;;;;19.97;11.20;;;;;;;1.86;83.25;94617.38;5091904;28;20535;-81
2022/03/08 01:27:09;;;;;;;17.17;9.60;;;;;;;1.81;83.18;94605.88;5092151;28;20166;-81
2022/03/08 01:29:34;;;;;;;15.13;9.77;;;;;;;1.87;82.20;94613.78;5092140;28;20166;-82
2022/03/08 01:32:00;;;;;;;14.77;9.73;;;;;;;1.77;82.09;94600.19;5091852;28;20170;-81
2022/03/08 01:34:25;;;;;;;14.97;8.83;;;;;;;1.54;82.67;94567.28;5091834;28;20669;-81
2022/03/08 01:36:51;;;;;;;18.17;9.67;;;;;;;1.89;82.13;94616.22;5091766;28;20538;-82
2022/03/08 01:39:16;;;;;;;15.53;9.67;;;;;;;1.56;81.98;94565.34;5091957;28;20158;-81
2022/03/08 01:41:42;;;;;;;16.17;9.97;;;;;;;1.64;81.95;94576.53;5091886;28;20181;-81
2022/03/08 01:44:09;;;;;;;14.63;9.10;;;;;;;1.75;81.45;94598.72;5091769;28;20550;-81
2022/03/08 01:46:36;;;;;;;17.60;9.90;;;;;;;1.76;81.14;94589.97;5091779;28;20161;-81
2022/03/08 01:49:03;;;;;;;19.07;11.23;;;;;;;1.84;81.81;94613.31;5098540;28;20185;-81
2022/03/08 01:51:28;;;;;;;19.03;10.97;;;;;;;1.73;81.65;94606.66;5107211;28;20538;-81
2022/03/08 01:53:54;;;;;;;20.97;12.07;;;;;;;1.62;81.93;94599.22;5107819;28;20173;-81
2022/03/08 01:56:20;;;;;;;19.10;10.20;;;;;;;1.38;81.64;94578.47;5105260;27;20266;-81
2022/03/08 01:58:45;;;;;;;18.27;10.57;;;;;;;1.28;82.37;94560.47;5103999;28;20174;-81
2022/03/08 02:01:10;;;;;;;17.67;11.17;;;;;;;1.35;82.73;94577.00;5109242;28;20224;-81
2022/03/08 02:03:36;;;;;;;16.33;10.07;;;;;;;1.51;83.26;94599.53;5115919;28;20249;-81
2022/03/08 02:06:02;;;;;;;15.83;10.17;;;;;;;1.44;82.15;94575.22;5116064;28;20173;-81
2022/03/08 02:08:27;;;;;;;15.47;9.33;;;;;;;1.34;82.30;94565.00;5101332;28;20202;-81
2022/03/08 02:10:53;;;;;;;16.30;10.50;;;;;;;1.61;82.26;94602.78;5101581;28;20192;-80
2022/03/08 02:13:19;;;;;;;19.00;10.30;;;;;;;1.59;82.61;94602.13;5107626;28;20226;-81
2022/03/08 02:15:51;;;;;;;18.77;10.90;;;;;;;1.58;82.08;94600.50;5097845;28;20341;-81
2022/03/08 02:18:18;;;;;;;17.73;10.37;;;;;;;1.57;82.97;94604.06;5095504;28;20158;-81
2022/03/08 02:20:44;;;;;;;22.30;11.13;;;;;;;1.59;82.18;94604.72;5094840;28;20253;-81
2022/03/08 02:23:10;;;;;;;18.93;11.00;;;;;;;1.56;83.25;94599.84;5094740;28;20169;-81
2022/03/08 02:25:35;;;;;;;23.43;11.93;;;;;;;1.61;82.74;94602.78;5095118;28;20158;-81
2022/03/08 02:28:01;;;;;;;21.20;11.23;;;;;;;1.27;82.36;94551.09;5095015;28;20189;-81
2022/03/08 02:30:27;;;;;;;19.40;10.37;;;;;;;1.59;82.99;94611.69;5094620;28;20631;-81
2022/03/08 02:32:53;;;;;;;22.57;12.03;;;;;;;1.59;82.74;94604.72;5093906;28;20169;-81
2022/03/08 02:35:21;;;;;;;21.07;12.40;;;;;;;1.55;83.25;94610.41;5094900;28;20219;-81
2022/03/08 02:37:49;;;;;;;19.77;11.20;;;;;;;1.63;82.57;94611.22;5093280;28;20170;-82
2022/03/08 02:40:17;;;;;;;20.07;11.53;;;;;;;1.67;82.66;94614.28;5094723;28;20158;-82
2022/03/08 02:42:43;;;;;;;24.47;12.83;;;;;;;1.67;82.04;94612.50;5094464;28;20245;-82
2022/03/08 02:45:11;;;;;;;26.97;14.30;;;;;;;1.25;81.95;94557.38;5094460;28;20257;-82
2022/03/08 02:47:36;;;;;;;23.23;12.27;;;;;;;1.06;82.05;94567.09;5094324;28;20185;-82
2022/03/08 02:50:03;;;;;;;19.77;11.60;;;;;;;1.32;82.46;94623.16;5094337;28;20271;-81
2022/03/08 02:52:29;;;;;;;21.60;11.77;;;;;;;1.26;82.94;94623.81;5093437;28;20185;-81
2022/03/08 02:54:54;;;;;;;20.93;11.97;;;;;;;0.71;84.07;94544.84;5094853;28;20338;-81
2022/03/08 02:57:19;;;;;;;22.73;12.30;;;;;;;0.88;83.90;94581.16;5094407;28;20181;-81
2022/03/08 02:59:45;;;;;;;17.53;10.63;;;;;;;0.93;83.80;94603.03;5094729;28;20176;-82
2022/03/08 03:02:10;;;;;;;21.80;11.43;;;;;;;0.77;83.84;94578.88;5093777;28;20233;-81
2022/03/08 03:04:36;;;;;;;20.83;11.13;;;;;;;1.04;84.86;94609.69;5095910;28;20307;-82
2022/03/08 03:07:01;;;;;;;21.43;11.83;;;;;;;1.21;84.38;94631.28;5105406;28;20165;-81
2022/03/08 03:09:27;;;;;;;20.30;12.03;;;;;;;0.88;84.40;94581.16;5100070;28;20224;-82
2022/03/08 03:11:53;;;;;;;21.57;11.93;;;;;;;1.23;84.86;94630.13;5106877;28;20174;-81
2022/03/08 03:14:18;;;;;;;20.50;10.53;;;;;;;1.36;83.97;94642.63;5111600;28;20656;-81
2022/03/08 03:16:43;;;;;;;21.83;11.10;;;;;;;1.22;84.05;94643.25;5114799;28;20161;-81
2022/03/08 03:19:09;;;;;;;19.80;10.87;;;;;;;0.99;84.70;94601.56;5114382;28;20165;-82
2022/03/08 03:21:34;;;;;;;19.60;10.70;;;;;;;1.04;84.43;94630.41;5114112;28;20159;-82
2022/03/08 03:24:00;;;;;;;18.67;11.20;;;;;;;0.85;84.94;94654.81;5114070;28;20543;-81
2022/03/08 03:26:25;;;;;;;20.27;11.77;;;;;;;0.90;85.61;94652.56;5113925;28;20184;-81
2022/03/08 03:28:51;;;;;;;21.30;12.03;;;;;;;0.61;86.29;94593.38;5112618;28;20280;-81
2022/03/08 03:31:17;;;;;;;21.10;11.60;;;;;;;0.82;85.59;94637.00;5112746;28;20184;-81
2022/03/08 03:33:43;;;;;;;18.80;11.10;;;;;;;0.95;85.66;94652.88;5102418;28;20235;-81
2022/03/08 03:36:08;;;;;;;20.80;10.77;;;;;;;0.98;85.89;94646.59;5102059;28;20597;-81
2022/03/08 03:38:34;;;;;;;18.57;10.90;;;;;;;0.56;85.67;94559.38;5104863;28;20161;-82
2022/03/08 03:40:59;;;;;;;21.63;11.90;;;;;;;1.09;84.81;94639.34;5111264;28;20184;-81
2022/03/08 03:43:24;;;;;;;21.87;11.10;;;;;;;1.22;85.90;94653.59;5113709;28;20581;-81
2022/03/08 03:45:50;;;;;;;19.93;12.03;;;;;;;0.85;85.32;94578.88;5113942;28;20172;-81
2022/03/08 03:48:15;;;;;;;23.80;11.90;;;;;;;1.32;85.24;94643.91;5113503;28;20201;-80
2022/03/08 03:50:41;;;;;;;19.03;10.93;;;;;;;1.32;84.94;94644.72;5112278;28;20618;-81
2022/03/08 03:53:07;;;;;;;18.30;10.83;;;;;;;1.35;84.11;94646.19;5113587;28;20146;-81
2022/03/08 03:55:33;;;;;;;19.53;10.53;;;;;;;1.42;84.46;94644.59;5112144;28;20234;-81
2022/03/08 03:57:58;;;;;;;23.27;12.07;;;;;;;1.06;84.18;94593.00;5113759;28;20201;-81
2022/03/08 04:00:24;;;;;;;21.43;11.23;;;;;;;1.41;84.70;94650.72;5113512;28;20192;-81
2022/03/08 04:02:49;;;;;;;19.47;10.77;;;;;;;1.48;84.48;94651.72;5113329;28;20205;-81
2022/03/08 04:05:14;;;;;;;21.80;12.47;;;;;;;1.20;83.91;94603.72;5113573;28;20189;-81
2022/03/08 04:07:40;;;;;;;27.77;15.33;;;;;;;1.19;83.64;94596.94;5111871;28;20196;-81
2022/03/08 04:10:08;;;;;;;28.00;14.87;;;;;;;1.10;83.58;94609.88;5113671;28;20223;-81
2022/03/08 04:12:33;;;;;;;30.43;15.30;;;;;;;1.38;83.79;94648.47;5113233;28;21081;-79
2022/03/08 04:14:59;;;;;;;24.63;14.07;;;;;;;1.16;84.74;94607.59;5100862;28;20178;-79
2022/03/08 04:17:24;;;;;;;24.67;12.83;;;;;;;1.45;84.44;94657.22;5100400;28;20177;-80
2022/03/08 04:19:50;;;;;;;27.17;14.63;;;;;;;1.43;84.22;94638.44;5099944;28;20173;-80
2022/03/08 04:22:15;;;;;;;28.83;14.63;;;;;;;1.57;84.36;94658.53;5096214;28;20174;-79
2022/03/08 04:24:41;;;;;;;32.23;16.13;;;;;;;1.48;84.72;94636.16;5091305;28;20181;-79
2022/03/08 04:27:06;;;;;;;27.27;15.80;;;;;;;1.59;84.91;94651.41;5092509;28;20233;-79
2022/03/08 04:29:32;;;;;;;29.97;15.63;;;;;;;1.57;84.84;94649.94;5091103;28;20607;-79
2022/03/08 04:31:58;;;;;;;31.53;16.67;;;;;;;1.22;84.80;94596.59;5096503;28;20177;-82
2022/03/08 04:34:23;;;;;;;29.40;16.60;;;;;;;1.38;83.81;94623.38;5097402;28;20176;-79
2022/03/08 04:36:49;;;;;;;34.80;19.53;;;;;;;0.95;84.62;94566.59;5101271;28;20173;-82
2022/03/08 04:39:14;;;;;;;37.53;19.87;;;;;;;1.48;84.94;94639.56;5105075;28;20192;-83
2022/03/08 04:41:40;;;;;;;31.70;17.60;;;;;;;1.43;84.36;94635.84;5093893;28;20188;-83
2022/03/08 04:44:05;;;;;;;31.47;16.33;;;;;;;1.40;84.17;94636.16;5103771;28;20177;-82
2022/03/08 04:46:31;;;;;;;36.10;18.97;;;;;;;1.50;85.33;94647.19;5103420;28;20233;-82
2022/03/08 04:48:56;;;;;;;33.20;18.77;;;;;;;1.22;84.53;94605.16;5100110;28;20250;-82
2022/03/08 04:51:22;;;;;;;39.00;19.60;;;;;;;1.43;84.67;94641.03;5095006;28;20176;-82
2022/03/08 04:53:47;;;;;;;117.67;38.43;;;;;;;1.22;84.46;94610.34;5092209;28;20184;-82
2022/03/08 04:56:13;;;;;;;123.27;38.07;;;;;;;1.26;84.92;94613.44;5092348;28;20230;-82
2022/03/08 04:58:38;;;;;;;114.07;37.83;;;;;;;1.50;84.99;94655.78;5092459;28;20177;-83
2022/03/08 05:01:03;;;;;;;127.97;41.53;;;;;;;1.49;84.42;94654.16;5092168;28;20243;-83
2022/03/08 05:03:29;;;;;;;167.73;42.37;;;;;;;1.49;84.75;94658.53;5092389;28;20162;-82
2022/03/08 05:05:54;;;;;;;147.63;38.87;;;;;;;1.24;85.10;94607.59;5090858;28;20178;-80
2022/03/08 05:08:20;;;;;;;247.03;55.17;;;;;;;1.54;85.09;94653.69;5091973;28;20200;-80
2022/03/08 05:10:45;;;;;;;108.57;31.60;;;;;;;1.10;84.53;94581.38;5090700;28;20177;-83
2022/03/08 05:13:11;;;;;;;89.23;27.53;;;;;;;1.16;84.90;94595.47;5091992;28;20181;-83
2022/03/08 05:15:36;;;;;;;76.07;27.20;;;;;;;1.37;84.72;94631.31;5092078;28;20219;-82
2022/03/08 05:18:02;;;;;;;64.33;24.70;;;;;;;1.36;84.46;94619.31;5090780;28;20177;-80
2022/03/08 05:20:28;;;;;;;60.47;20.97;;;;;;;1.37;84.87;94639.88;5092224;28;20243;-80
2022/03/08 05:22:54;;;;;;;51.03;18.97;;;;;;;1.12;85.13;94601.94;5092221;28;20585;-82
2022/03/08 05:25:19;;;;;;;67.17;22.47;;;;;;;0.93;84.45;94599.63;5093936;28;20158;-82
2022/03/08 05:27:45;;;;;;;47.10;19.07;;;;;;;1.05;85.06;94608.72;5095863;28;20196;-82
2022/03/08 05:30:12;;;;;;;46.17;19.63;;;;;;;1.37;85.77;94646.84;5095838;28;20177;-82
2022/03/08 05:32:37;;;;;;;58.77;21.57;;;;;;;1.05;85.41;94583.59;5096199;28;20162;-82
2022/03/08 05:35:03;;;;;;;55.53;20.73;;;;;;;1.10;84.69;94586.56;5095650;28;20252;-82
2022/03/08 05:37:28;;;;;;;48.70;19.17;;;;;;;1.05;84.56;94570.66;5097826;28;20642;-82
2022/03/08 05:39:54;;;;;;;43.03;18.90;;;;;;;1.59;84.46;94645.41;5106601;28;20168;-82
2022/03/08 05:42:19;;;;;;;41.60;19.67;;;;;;;1.48;84.21;94626.59;5100966;28;20177;-83
2022/03/08 05:44:44;;;;;;;49.80;20.33;;;;;;;1.24;83.88;94573.91;5100315;28;20267;-83
2022/03/08 05:47:10;;;;;;;47.50;20.73;;;;;;;1.84;83.21;94666.00;5095739;28;20193;-83
2022/03/08 05:49:36;;;;;;;51.63;21.33;;;;;;;1.80;83.48;94646.56;5095759;28;20189;-80
2022/03/08 05:52:01;;;;;;;39.27;16.70;;;;;;;1.77;83.27;94626.13;5095486;28;20243;-79
2022/03/08 05:54:28;;;;;;;34.60;16.80;;;;;;;1.84;82.35;94637.47;5094142;28;20643;-80
2022/03/08 05:56:53;;;;;;;27.87;15.03;;;;;;;2.03;82.47;94666.66;5095518;28;20796;-80
2022/03/08 05:59:19;;;;;;;31.57;16.27;;;;;;;1.76;82.28;94615.91;5095243;28;20158;-80
2022/03/08 06:01:44;;;;;;;36.00;17.00;;;;;;;1.71;81.73;94585.28;5095367;28;20286;-80
2022/03/08 06:04:09;;;;;;;28.83;14.57;;;;;;;2.10;82.23;94628.69;5095436;28;20211;-80
2022/03/08 06:06:35;;;;;;;27.27;13.93;;;;;;;2.18;81.84;94642.47;5095446;28;20166;-80
2022/03/08 06:09:00;;;;;;;30.23;14.60;;;;;;;2.41;82.06;94665.16;5094990;28;20301;-80
2022/03/08 06:11:26;;;;;;;31.53;15.03;;;;;;;2.43;81.00;94661.41;5093739;28;20170;-80
2022/03/08 06:13:51;;;;;;;28.00;14.87;;;;;;;2.41;80.45;94650.38;5094992;28;20174;-81
2022/03/08 06:16:16;;;;;;;24.23;13.63;;;;;;;2.38;79.51;94666.28;5094975;28;20736;-80
2022/03/08 06:18:42;;;;;;;24.70;13.43;;;;;;;2.16;80.33;94648.81;5094882;28;20158;-80
2022/03/08 06:21:07;;;;;;;25.70;13.77;;;;;;;1.94;80.61;94610.53;5094807;28;20261;-80
2022/03/08 06:23:33;;;;;;;27.60;13.70;;;;;;;1.90;80.49;94613.44;5095064;28;20232;-80
2022/03/08 06:25:59;;;;;;;26.53;14.00;;;;;;;2.26;81.34;94671.00;5094860;28;20157;-80
2022/03/08 06:28:24;;;;;;;32.63;15.90;;;;;;;2.34;81.25;94672.78;5094659;28;20197;-80
2022/03/08 06:30:50;;;;;;;31.67;17.43;;;;;;;2.11;80.85;94628.53;5094831;28;20169;-80
2022/03/08 06:33:15;;;;;;;26.77;13.73;;;;;;;2.21;80.33;94647.34;5094568;28;20181;-80
2022/03/08 06:35:41;;;;;;;27.80;14.10;;;;;;;2.39;80.04;94670.50;5099647;28;20717;-80
2022/03/08 06:38:06;;;;;;;28.63;15.17;;;;;;;2.16;80.39;94636.59;5106568;28;20172;-80
2022/03/08 06:40:32;;;;;;;25.37;14.63;;;;;;;2.03;80.00;94612.16;5106437;28;20269;-80
2022/03/08 06:42:57;;;;;;;24.10;12.93;;;;;;;2.17;79.78;94634.81;5103536;28;20196;-81
2022/03/08 06:45:23;;;;;;;24.17;14.50;;;;;;;2.20;79.56;94639.69;5101952;28;20184;-82
2022/03/08 06:47:48;;;;;;;27.20;13.63;;;;;;;2.10;79.48;94637.28;5102089;28;20189;-82
2022/03/08 06:50:14;;;;;;;30.87;16.13;;;;;;;2.09;79.16;94627.06;5104739;28;20249;-81
2022/03/08 06:52:39;;;;;;;28.03;15.50;;;;;;;2.32;79.54;94660.94;5101313;28;20173;-80
2022/03/08 06:55:05;;;;;;;26.47;14.17;;;;;;;2.56;79.65;94684.28;5106665;28;21005;-81
2022/03/08 06:57:31;;;;;;;28.67;15.17;;;;;;;2.34;79.15;94646.81;5102213;28;20617;-80
2022/03/08 06:59:56;;;;;;;23.73;13.70;;;;;;;2.62;79.27;94681.00;5103023;28;20207;-80
2022/03/08 07:02:22;;;;;;;23.90;12.10;;;;;;;2.59;77.97;94689.16;5103009;28;20358;-80
2022/03/08 07:04:47;;;;;;;24.07;12.43;;;;;;;2.41;78.45;94658.19;5104879;28;20260;-80
2022/03/08 07:07:13;;;;;;;22.13;12.07;;;;;;;2.25;78.26;94640.00;5105250;28;20192;-80
2022/03/08 07:09:38;;;;;;;18.53;10.27;;;;;;;2.36;78.33;94675.22;5109109;28;20205;-81
2022/03/08 07:12:04;;;;;;;22.90;11.73;;;;;;;1.82;78.77;94603.06;5102882;27;20166;-81
2022/03/08 07:14:30;;;;;;;21.37;12.13;;;;;;;2.09;79.17;94645.22;5105436;28;20622;-81
2022/03/08 07:16:55;;;;;;;20.60;11.07;;;;;;;2.40;79.22;94685.13;5103686;28;20169;-81
2022/03/08 07:19:20;;;;;;;19.07;11.20;;;;;;;2.11;78.08;94651.06;5100678;28;20573;-80
2022/03/08 07:21:46;;;;;;;17.10;10.40;;;;;;;1.96;78.52;94626.75;5102408;28;20186;-81
2022/03/08 07:24:13;;;;;;;21.30;10.70;;;;;;;2.36;77.65;94694.19;5105514;28;20165;-80
2022/03/08 07:26:38;;;;;;;20.83;10.77;;;;;;;1.98;78.02;94637.78;5105744;28;20636;-81
2022/03/08 07:29:04;;;;;;;16.87;9.83;;;;;;;2.31;77.91;94680.91;5104578;28;20280;-80
2022/03/08 07:31:29;;;;;;;13.30;8.17;;;;;;;2.25;77.69;94673.75;5100073;28;20174;-81
2022/03/08 07:33:55;;;;;;;22.10;9.57;;;;;;;2.36;77.92;94691.59;5102218;28;20189;-81
2022/03/08 07:36:22;;;;;;;17.03;10.17;;;;;;;2.25;77.90;94689.34;5105660;28;20172;-81
2022/03/08 07:38:48;;;;;;;19.97;11.30;;;;;;;1.87;77.04;94633.75;5097970;28;20178;-80
2022/03/08 07:41:13;;;;;;;20.13;10.53;;;;;;;1.91;78.07;94635.03;5101570;28;20185;-81
2022/03/08 07:43:39;;;;;;;17.43;9.73;;;;;;;1.69;77.42;94623.53;5102404;28;20178;-81
2022/03/08 07:46:09;;;;;;;17.13;9.63;;;;;;;1.82;78.55;94631.63;5109136;27;20173;-81
2022/03/08 07:48:36;;;;;;;17.70;10.20;;;;;;;2.05;78.29;94694.06;5099899;28;20207;-81
2022/03/08 07:51:01;;;;;;;19.07;11.17;;;;;;;1.75;78.23;94642.81;5104277;28;20202;-84
2022/03/08 07:53:27;;;;;;;21.13;11.77;;;;;;;2.12;78.34;94686.44;5107520;28;20770;-82
2022/03/08 07:55:52;;;;;;;16.53;10.10;;;;;;;1.91;77.39;94648.00;5108183;28;20170;-82
2022/03/08 07:58:19;;;;;;;19.67;10.33;;;;;;;1.73;77.31;94627.41;5104821;28;20184;-83
2022/03/08 08:00:45;;;;;;;18.83;11.20;;;;;;;1.93;77.91;94690.16;5102841;28;20278;-82
2022/03/08 08:03:10;;;;;;;22.20;11.30;;;;;;;1.97;78.16;94672.50;5102437;28;20637;-81
2022/03/08 08:05:37;;;;;;;20.97;11.50;;;;;;;2.14;78.02;94682.72;5103456;28;20181;-82
2022/03/08 08:08:04;;;;;;;21.93;13.00;;;;;;;2.26;78.21;94685.78;5097767;27;20208;-82
2022/03/08 08:10:29;;;;;;;19.70;11.63;;;;;;;2.47;77.77;94685.25;5100798;28;20257;-82
2022/03/08 08:12:55;;;;;;;21.57;11.83;;;;;;;2.09;76.19;94640.84;5103326;28;20260;-81
2022/03/08 08:15:20;;;;;;;24.63;13.37;;;;;;;2.16;76.93;94654.00;5101158;28;20177;-81
2022/03/08 08:17:46;;;;;;;25.90;13.73;;;;;;;1.81;77.20;94609.28;5100330;28;20631;-81
2022/03/08 08:20:11;;;;;;;21.63;12.37;;;;;;;2.30;77.06;94679.28;5097837;28;20173;-81
2022/03/08 08:22:38;;;;;;;25.60;13.93;;;;;;;2.08;76.59;94652.19;5098703;28;20631;-81
2022/03/08 08:25:06;;;;;;;34.17;16.40;;;;;;;2.23;77.11;94671.34;5100193;28;20223;-84
2022/03/08 08:27:31;;;;;;;24.60;13.57;;;;;;;1.88;77.00;94636.19;5102451;28;20187;-80
2022/03/08 08:29:57;;;;;;;24.03;13.90;;;;;;;2.03;78.40;94654.50;5103715;28;20169;-80
2022/03/08 08:32:23;;;;;;;25.73;13.03;;;;;;;2.26;78.25;94690.97;5099437;28;20192;-81
2022/03/08 08:34:48;;;;;;;19.90;11.93;;;;;;;2.26;77.33;94696.97;5102401;28;20177;-81
2022/03/08 08:37:14;;;;;;;27.30;16.07;;;;;;;1.96;76.96;94650.13;5100298;28;20209;-81
2022/03/08 08:39:39;;;;;;;26.33;13.33;;;;;;;1.91;77.21;94653.19;5097930;28;20184;-82
2022/03/08 08:42:05;;;;;;;24.40;13.33;;;;;;;2.11;77.15;94683.03;5101952;28;20185;-83
2022/03/08 08:44:30;;;;;;;22.13;12.07;;;;;;;2.23;76.32;94694.72;5098277;28;20165;-82
2022/03/08 08:46:56;;;;;;;21.23;12.47;;;;;;;1.93;76.48;94653.84;5101615;28;20177;-83
2022/03/08 08:49:21;;;;;;;25.20;13.20;;;;;;;2.05;75.49;94708.84;5103481;28;20197;-83
2022/03/08 08:51:46;;;;;;;22.70;12.23;;;;;;;1.41;75.20;94635.19;5105220;28;20251;-82
2022/03/08 08:54:12;;;;;;;26.93;13.20;;;;;;;1.69;76.48;94688.38;5101210;28;20166;-83
2022/03/08 08:56:38;;;;;;;26.70;13.77;;;;;;;1.82;75.47;94706.06;5102128;28;20179;-83
2022/03/08 08:59:05;;;;;;;29.07;14.30;;;;;;;1.63;75.15;94680.44;5098548;28;20170;-83
2022/03/08 09:01:32;;;;;;;22.53;12.50;;;;;;;1.83;75.55;94716.28;5098477;28;20216;-82
2022/03/08 09:03:57;;;;;;;22.20;13.00;;;;;;;1.39;75.18;94642.31;5102891;28;20248;-82
2022/03/08 09:06:23;;;;;;;30.37;14.13;;;;;;;1.33;75.24;94635.16;5100014;28;20902;-83
2022/03/08 09:08:48;;;;;;;26.07;14.03;;;;;;;1.83;74.58;94708.50;5105918;28;20189;-82
2022/03/08 09:11:14;;;;;;;25.80;13.57;;;;;;;1.51;74.94;94649.63;5103163;28;20317;-81
2022/03/08 09:13:40;;;;;;;29.17;15.17;;;;;;;1.92;74.96;94711.91;5098155;28;20218;-83
2022/03/08 09:16:05;;;;;;;33.47;17.70;;;;;;;1.90;74.67;94712.06;5100800;28;20177;-81
2022/03/08 09:18:31;;;;;;;27.57;15.30;;;;;;;1.95;74.01;94714.19;5097184;28;20169;-83
2022/03/08 09:20:57;;;;;;;34.10;15.57;;;;;;;1.73;74.24;94673.31;5101222;28;20162;-83
2022/03/08 09:23:22;;;;;;;31.97;15.57;;;;;;;1.96;74.73;94699.44;5104478;28;20173;-82
2022/03/08 09:25:48;;;;;;;28.80;14.53;;;;;;;1.75;74.07;94677.34;5102573;28;20201;-83
2022/03/08 09:28:14;;;;;;;29.23;15.80;;;;;;;1.40;73.95;94616.22;5099175;28;20571;-81
2022/03/08 09:30:41;;;;;;;26.60;14.10;;;;;;;1.70;73.26;94663.25;5100211;28;20613;-81
2022/03/08 09:33:06;;;;;;;29.33;14.97;;;;;;;1.90;73.53;94701.69;5098607;28;20169;-81
2022/03/08 09:35:32;;;;;;;32.53;16.77;;;;;;;2.03;73.94;94714.19;5102248;28;20235;-81
2022/03/08 09:37:57;;;;;;;34.87;17.87;;;;;;;1.83;74.52;94643.63;5097756;28;20554;-82
2022/03/08 09:40:23;;;;;;;41.47;19.20;;;;;;;2.29;73.04;94695.84;5099517;28;20178;-81
2022/03/08 09:42:50;;;;;;;32.97;15.67;;;;;;;2.13;72.45;94649.13;5104550;28;20184;-82
2022/03/08 09:45:17;;;;;;;33.97;16.23;;;;;;;2.58;72.50;94708.31;5100000;28;20652;-81
2022/03/08 09:47:43;;;;;;;34.60;16.47;;;;;;;2.63;71.50;94709.41;5098491;28;20196;-82
2022/03/08 09:50:11;;;;;;;34.73;16.30;;;;;;;2.64;71.36;94679.88;5101266;28;20252;-83
2022/03/08 09:52:40;;;;;;;26.63;14.30;;;;;;;2.97;71.09;94709.16;5107718;28;20178;-82
2022/03/08 09:55:06;;;;;;;29.50;15.47;;;;;;;3.14;71.01;94717.69;5103076;28;20219;-83
2022/03/08 09:57:32;;;;;;;27.53;14.63;;;;;;;3.00;69.68;94664.63;5098657;28;20188;-82
2022/03/08 09:59:58;;;;;;;31.50;16.40;;;;;;;3.30;70.44;94696.81;5097194;28;20257;-82
2022/03/08 10:02:24;;;;;;;32.83;16.57;;;;;;;3.27;68.74;94681.56;5102148;28;20231;-82
2022/03/08 10:05:06;;;;;;;29.27;14.73;;;;;;;3.38;68.64;94717.59;5102558;28;20177;-81
2022/03/08 10:07:32;;;;;;;32.27;17.13;;;;;;;3.05;69.72;94677.13;5098397;28;20567;-81
2022/03/08 10:09:58;;;;;;;31.43;17.13;;;;;;;3.28;70.08;94718.81;5101267;28;20657;-83
2022/03/08 10:12:25;;;;;;;32.40;16.77;;;;;;;3.27;69.46;94720.59;5114041;28;20677;-82
2022/03/08 10:14:51;;;;;;;26.33;15.87;;;;;;;3.27;70.27;94717.19;5115389;28;20176;-82
2022/03/08 10:17:40;;;;;;;35.17;17.43;;;;;;;2.94;70.11;94670.47;5115941;28;20163;-81
2022/03/08 10:20:08;;;;;;;32.90;16.27;;;;;;;3.26;70.76;94713.75;5112428;28;20256;-84
2022/03/08 10:22:37;;;;;;;41.73;19.17;;;;;;;3.01;71.20;94670.66;5099573;28;20319;-84
2022/03/08 10:25:12;;;;;;;29.90;17.07;;;;;;;3.38;71.67;94717.59;5102275;27;20226;-85
2022/03/08 10:27:41;;;;;;;31.80;17.63;;;;;;;3.34;71.82;94682.50;5101911;28;20210;-85
2022/03/08 10:30:12;;;;;;;30.47;16.63;;;;;;;3.17;70.65;94712.16;5113717;28;20201;-85
2022/03/08 10:32:39;;;;;;;35.90;17.23;;;;;;;3.00;71.36;94680.22;5098406;28;20177;-81
2022/03/08 10:35:05;;;;;;;30.27;16.53;;;;;;;3.27;70.42;94712.78;5101060;28;20178;-81
2022/03/08 10:37:38;;;;;;;26.70;15.23;;;;;;;3.00;69.86;94713.22;5104889;28;20242;-82
2022/03/08 10:40:04;;;;;;;30.10;16.60;;;;;;;3.23;70.60;94715.88;5104080;28;20166;-82
2022/03/08 10:42:33;;;;;;;31.60;15.90;;;;;;;3.16;69.31;94713.16;5107403;28;20184;-84
2022/03/08 10:45:08;;;;;;;26.70;13.00;;;;;;;3.16;68.40;94715.75;5103575;28;20184;-81
2022/03/08 10:47:45;;;;;;;28.57;14.03;;;;;;;3.27;70.06;94706.78;5101242;28;20181;-81
2022/03/08 10:50:13;;;;;;;30.00;16.70;;;;;;;3.09;69.10;94691.41;5101542;28;20173;-81
2022/03/08 10:52:42;;;;;;;31.43;15.90;;;;;;;3.35;69.97;94710.16;5103427;28;20667;-81
2022/03/08 10:55:08;;;;;;;29.47;15.10;;;;;;;3.19;68.50;94667.81;5103908;28;20638;-81
2022/03/08 10:57:36;;;;;;;36.80;17.27;;;;;;;3.26;68.89;94676.53;5105791;28;20173;-85
2022/03/08 11:00:09;;;;;;;31.33;14.93;;;;;;;3.60;68.96;94717.81;5102044;28;20180;-84
2022/03/08 11:02:45;;;;;;;28.77;14.17;;;;;;;3.73;68.03;94718.84;5105278;28;20342;-84
2022/03/08 11:05:11;;;;;;;32.20;16.80;;;;;;;3.63;68.45;94686.25;5102152;28;20629;-82
2022/03/08 11:07:37;;;;;;;57.20;30.03;;;;;;;3.91;68.23;94696.94;5104463;28;20257;-82
2022/03/08 11:10:08;;;;;;;34.43;16.17;;;;;;;3.46;66.68;94653.50;5102617;28;20555;-82
2022/03/08 11:12:34;;;;;;;28.37;15.00;;;;;;;3.68;67.21;94697.75;5091810;28;20223;-81
2022/03/08 11:15:01;;;;;;;28.93;15.80;;;;;;;3.95;67.59;94717.25;5091989;28;20205;-82
2022/03/08 11:17:27;;;;;;;31.97;15.87;;;;;;;3.52;66.06;94705.66;5092082;28;20256;-82
2022/03/08 11:19:53;;;;;;;34.67;16.47;;;;;;;3.61;67.81;94712.44;5096999;28;20319;-82